Terminal Aerodrome Forecast
Issued by NWS

Home | Current Version | Previous Version | Text Only | Print | Product List | Glossary On
Versions: 1 2 3 4 5 6 7 8 9 10 11 12 13 14 15 16 17 18 19
000
FTUS42 KMHX 212340
TAFPGV
TAF
KPGV 212340Z 2200/2224 15004KT P6SM SCT250
      TEMPO 2203/2207 1SM BR SCT003
     FM220700 00000KT 1SM BR SCT003
      TEMPO 2208/2212 1/2SM FG BKN003
     FM221200 09004KT P6SM SCT250
      AMD LTD TO CLD VIS AND WIND=

USA.gov is the U.S. government's official web portal to all federal, state and local government web resources and services.